createdAt,value
2022-12-01T00:01:19.929Z,71.07
2022-12-01T00:03:48.037Z,71.19
2022-12-01T00:06:17.087Z,71.31
2022-12-01T00:09:01.591Z,70.84
2022-12-01T00:11:29.296Z,70.66
2022-12-01T00:13:56.911Z,70.88
2022-12-01T00:16:24.542Z,70.76
2022-12-01T00:18:52.962Z,71.37
2022-12-01T00:21:22.516Z,71.29
2022-12-01T00:23:54.381Z,71.45
2022-12-01T00:26:22.980Z,71.76
2022-12-01T00:28:51.342Z,71.55
2022-12-01T00:31:19.064Z,71.45
2022-12-01T00:33:46.828Z,71.78
2022-12-01T00:36:14.431Z,71.74
2022-12-01T00:38:42.486Z,71.15
2022-12-01T00:41:11.404Z,71.79
2022-12-01T00:43:39.689Z,71.78
2022-12-01T00:46:07.361Z,71.97
2022-12-01T00:48:34.969Z,71.47
2022-12-01T00:51:03.201Z,71.84
2022-12-01T00:53:31.171Z,72.00
2022-12-01T00:55:58.877Z,71.83
2022-12-01T00:58:29.080Z,71.86
2022-12-01T01:01:00.872Z,71.88
2022-12-01T01:03:29.488Z,71.65
2022-12-01T01:05:57.129Z,71.60
2022-12-01T01:08:24.732Z,71.67
2022-12-01T01:10:52.456Z,71.10
2022-12-01T01:13:20.100Z,70.85
2022-12-01T01:15:58.682Z,71.10
2022-12-01T01:18:26.794Z,71.18
2022-12-01T01:20:57.585Z,71.15
2022-12-01T01:23:25.222Z,71.35
2022-12-01T01:25:52.875Z,71.53
2022-12-01T01:28:20.937Z,71.44
2022-12-01T01:30:49.979Z,71.31
2022-12-01T01:33:17.627Z,71.61
2022-12-01T01:35:45.246Z,71.37
2022-12-01T01:38:12.913Z,71.85
2022-12-01T01:40:44.154Z,71.45
2022-12-01T01:43:16.800Z,71.88
2022-12-01T01:45:44.686Z,71.38
2022-12-01T01:48:14.738Z,71.67
2022-12-01T01:50:42.726Z,71.55
2022-12-01T01:53:15.933Z,71.83
2022-12-01T01:55:43.952Z,71.68
2022-12-01T01:58:12.317Z,71.86
2022-12-01T02:00:43.434Z,71.43
2022-12-01T02:03:16.687Z,72.04
2022-12-01T02:05:48.135Z,71.65
2022-12-01T02:08:15.844Z,71.97
2022-12-01T02:10:59.529Z,72.25
2022-12-01T02:13:34.605Z,72.09
2022-12-01T02:16:14.662Z,72.62
2022-12-01T02:18:52.810Z,72.67
2022-12-01T02:21:36.693Z,72.29
2022-12-01T02:24:43.563Z,72.48
2022-12-01T02:27:27.279Z,72.85
2022-12-01T02:30:10.866Z,72.62
2022-12-01T02:32:49.780Z,73.03
2022-12-01T02:35:23.645Z,72.70
2022-12-01T02:38:04.178Z,72.89
2022-12-01T02:40:34.989Z,72.53
2022-12-01T02:43:09.521Z,72.74
2022-12-01T02:45:44.827Z,72.18
2022-12-01T02:48:18.790Z,72.54
2022-12-01T02:50:47.621Z,72.75
2022-12-01T02:53:19.633Z,72.99
2022-12-01T02:55:52.479Z,72.86
2022-12-01T02:58:20.396Z,72.86
2022-12-01T03:01:02.334Z,72.55
2022-12-01T03:03:43.876Z,72.44
2022-12-01T03:06:20.351Z,73.20
2022-12-01T03:08:53.674Z,72.77
2022-12-01T03:11:35.392Z,73.01
2022-12-01T03:14:16.822Z,73.01
2022-12-01T03:16:51.008Z,72.84
2022-12-01T03:19:30.447Z,72.81
2022-12-01T03:22:03.235Z,73.24
2022-12-01T03:24:33.634Z,73.57
2022-12-01T03:27:03.752Z,73.32
2022-12-01T03:29:39.850Z,73.51
2022-12-01T03:32:14.871Z,73.40
2022-12-01T03:34:47.353Z,73.58
2022-12-01T03:37:20.604Z,73.40
2022-12-01T03:39:49.132Z,73.58
2022-12-01T03:42:22.012Z,72.90
2022-12-01T03:44:55.231Z,73.15
2022-12-01T03:47:25.412Z,73.33
2022-12-01T03:49:55.604Z,73.34
2022-12-01T03:52:35.536Z,72.67
2022-12-01T03:55:12.871Z,73.02
2022-12-01T03:57:47.106Z,73.68
2022-12-01T04:00:16.930Z,73.36
2022-12-01T04:02:45.838Z,73.56
2022-12-01T04:05:14.842Z,73.61
2022-12-01T04:07:42.531Z,73.88
2022-12-01T04:10:10.626Z,73.95
2022-12-01T04:12:37.398Z,74.14
2022-12-01T04:15:08.010Z,73.83
2022-12-01T04:17:35.925Z,73.94
2022-12-01T04:20:06.452Z,73.77
2022-12-01T04:22:35.480Z,73.82
2022-12-01T04:25:03.503Z,73.84
2022-12-01T04:27:31.106Z,73.51
2022-12-01T04:29:58.811Z,73.74
2022-12-01T04:32:26.687Z,73.80
2022-12-01T04:34:54.408Z,74.30
2022-12-01T04:37:22.021Z,74.04
2022-12-01T04:39:51.325Z,74.18
2022-12-01T04:42:19.210Z,73.54
2022-12-01T04:44:46.879Z,73.47
2022-12-01T04:47:14.551Z,73.82
2022-12-01T04:49:42.219Z,73.26
2022-12-01T04:52:09.806Z,72.16
2022-12-01T04:54:37.426Z,72.47
2022-12-01T04:57:06.503Z,72.46
2022-12-01T04:59:34.146Z,72.22
2022-12-01T05:02:02.763Z,72.38
2022-12-01T05:04:31.190Z,72.65
2022-12-01T05:06:58.846Z,73.26
2022-12-01T05:09:26.475Z,73.30
2022-12-01T05:11:54.050Z,73.46
2022-12-01T05:14:22.986Z,73.45
2022-12-01T05:16:50.647Z,73.49
2022-12-01T05:19:36.063Z,73.75
2022-12-01T05:22:03.737Z,74.04
2022-12-01T05:24:31.310Z,73.78
2022-12-01T05:26:58.915Z,74.12
2022-12-01T05:29:27.879Z,74.02
2022-12-01T05:31:55.614Z,74.16
2022-12-01T05:34:23.259Z,73.35
2022-12-01T05:36:50.866Z,73.30
2022-12-01T05:39:18.495Z,73.22
2022-12-01T05:41:46.070Z,73.23
2022-12-01T05:44:13.765Z,73.21
2022-12-01T05:46:42.715Z,73.05
2022-12-01T05:49:10.294Z,73.66
2022-12-01T05:51:37.956Z,72.84
2022-12-01T05:54:05.838Z,72.85
2022-12-01T05:56:33.428Z,72.62
2022-12-01T05:59:01.154Z,72.60
2022-12-01T06:01:28.865Z,72.95
2022-12-01T06:03:57.930Z,73.15
2022-12-01T06:06:25.604Z,73.37
2022-12-01T06:08:53.174Z,73.23
2022-12-01T06:11:20.824Z,72.91
2022-12-01T06:13:48.430Z,73.20
2022-12-01T06:16:16.142Z,73.38
2022-12-01T06:18:43.821Z,73.46
2022-12-01T06:21:12.806Z,73.02
2022-12-01T06:23:40.428Z,73.00
2022-12-01T06:26:08.046Z,73.37
2022-12-01T06:28:35.931Z,73.28
2022-12-01T06:31:03.920Z,73.21
2022-12-01T06:33:31.837Z,73.32
2022-12-01T06:36:02.095Z,73.32
2022-12-01T06:38:34.156Z,73.26
2022-12-01T06:41:02.875Z,73.38
2022-12-01T06:43:30.930Z,73.10
2022-12-01T06:46:02.182Z,72.90
2022-12-01T06:48:30.260Z,73.00
2022-12-01T06:50:58.563Z,72.90
2022-12-01T06:53:27.316Z,72.92
2022-12-01T06:56:01.002Z,73.26
2022-12-01T06:58:29.040Z,72.68
2022-12-01T07:00:57.368Z,72.73
2022-12-01T07:03:25.420Z,72.61
2022-12-01T07:05:58.482Z,72.90
2022-12-01T07:08:26.126Z,72.65
2022-12-01T07:11:06.177Z,72.88
2022-12-01T07:13:34.327Z,73.01
2022-12-01T07:16:03.065Z,73.29
2022-12-01T07:18:31.144Z,73.25
2022-12-01T07:21:00.606Z,73.13
2022-12-01T07:23:28.243Z,73.29
2022-12-01T07:25:59.858Z,72.71
2022-12-01T07:28:29.786Z,72.71
2022-12-01T07:31:03.390Z,72.59
2022-12-01T07:33:41.179Z,72.92
2022-12-01T07:39:25.313Z,72.85
2022-12-01T07:41:53.081Z,73.31
2022-12-01T07:44:25.006Z,73.43
2022-12-01T07:46:55.985Z,73.13
2022-12-01T07:49:27.634Z,73.21
2022-12-01T07:51:55.528Z,73.31
2022-12-01T07:54:23.387Z,73.24
2022-12-01T07:56:51.076Z,72.62
2022-12-01T07:59:18.740Z,72.43
2022-12-01T08:01:47.756Z,72.85
2022-12-01T08:04:15.744Z,73.35
2022-12-01T08:06:43.446Z,72.64
2022-12-01T08:09:11.655Z,72.46
2022-12-01T08:11:39.319Z,72.55
2022-12-01T08:14:06.998Z,72.26
2022-12-01T08:16:34.960Z,72.34
2022-12-01T08:19:04.027Z,72.05
2022-12-01T08:21:31.723Z,71.56
2022-12-01T08:23:59.840Z,71.33
2022-12-01T08:26:28.459Z,71.06
2022-12-01T08:28:56.391Z,71.53
2022-12-01T08:31:26.683Z,71.51
2022-12-01T08:33:55.396Z,71.94
2022-12-01T08:36:24.657Z,72.00
2022-12-01T08:38:54.277Z,72.13
2022-12-01T08:41:22.336Z,72.64
2022-12-01T08:43:57.998Z,72.39
2022-12-01T08:46:27.539Z,73.00
2022-12-01T08:48:57.308Z,73.19
2022-12-01T08:51:27.265Z,73.32
2022-12-01T08:53:57.489Z,73.11
2022-12-01T08:56:27.468Z,73.16
2022-12-01T08:58:55.948Z,72.68
2022-12-01T09:01:25.557Z,72.80
2022-12-01T09:04:05.444Z,72.74
2022-12-01T09:06:36.365Z,73.01
2022-12-01T09:09:04.209Z,72.35
2022-12-01T09:11:31.933Z,72.96
2022-12-01T09:14:00.310Z,72.80
2022-12-01T09:16:28.348Z,72.60
2022-12-01T09:18:56.472Z,72.49
2022-12-01T09:21:26.014Z,72.22
2022-12-01T09:23:55.416Z,71.51
2022-12-01T09:26:23.868Z,71.68
2022-12-01T09:28:54.854Z,71.81
2022-12-01T09:31:30.981Z,71.55
2022-12-01T09:34:00.509Z,71.50
2022-12-01T09:36:28.788Z,71.66
2022-12-01T09:38:58.292Z,71.58
2022-12-01T09:41:30.140Z,71.72
2022-12-01T09:44:06.092Z,70.91
2022-12-01T09:46:38.110Z,71.01
2022-12-01T09:49:09.635Z,70.92
2022-12-01T09:51:37.536Z,71.21
2022-12-01T09:54:12.526Z,71.64
2022-12-01T09:56:45.318Z,70.76
2022-12-01T09:59:20.505Z,70.92
2022-12-01T10:01:52.360Z,70.46
2022-12-01T10:04:26.006Z,70.94
2022-12-01T10:07:00.100Z,70.81
2022-12-01T10:09:36.971Z,70.86
2022-12-01T10:12:14.744Z,70.84
2022-12-01T10:14:45.911Z,70.67
2022-12-01T10:17:23.924Z,70.93
2022-12-01T10:19:58.584Z,71.07
2022-12-01T10:22:55.672Z,70.96
2022-12-01T10:25:27.294Z,70.81
2022-12-01T10:28:25.415Z,70.71
2022-12-01T10:30:54.291Z,70.90
2022-12-01T10:33:25.299Z,70.73
2022-12-01T10:35:53.429Z,71.03
2022-12-01T10:38:27.888Z,71.18
2022-12-01T10:41:00.914Z,70.86
2022-12-01T10:43:36.231Z,70.60
2022-12-01T10:46:17.850Z,70.27
2022-12-01T10:48:55.165Z,70.62
2022-12-01T10:51:23.818Z,70.55
2022-12-01T10:53:59.008Z,70.58
2022-12-01T10:56:28.529Z,70.91
2022-12-01T10:58:58.912Z,70.93
2022-12-01T11:01:31.495Z,70.33
2022-12-01T11:04:04.181Z,70.68
2022-12-01T11:06:33.554Z,70.42
2022-12-01T11:09:03.777Z,70.55
2022-12-01T11:11:35.395Z,70.37
2022-12-01T11:14:06.797Z,70.27
2022-12-01T11:16:38.791Z,70.35
2022-12-01T11:19:25.361Z,70.30
2022-12-01T11:21:57.210Z,69.99
2022-12-01T11:24:43.373Z,70.28
2022-12-01T11:27:19.091Z,70.22
2022-12-01T11:29:49.768Z,70.23
2022-12-01T11:32:21.731Z,70.18
2022-12-01T11:34:53.251Z,70.34
2022-12-01T11:37:23.190Z,70.14
2022-12-01T11:39:52.817Z,70.22
2022-12-01T11:42:28.176Z,69.87
2022-12-01T11:44:58.205Z,69.70
2022-12-01T11:47:27.576Z,69.70
2022-12-01T11:49:57.679Z,69.68
2022-12-01T11:52:31.788Z,70.01
2022-12-01T11:55:13.006Z,69.95
2022-12-01T11:57:43.690Z,70.02
2022-12-01T12:00:15.500Z,69.86
2022-12-01T12:02:54.898Z,69.50
2022-12-01T12:05:57.682Z,69.00
2022-12-01T12:08:48.041Z,69.49
2022-12-01T12:11:20.288Z,69.59
2022-12-01T12:14:13.705Z,69.56
2022-12-01T12:16:58.982Z,69.80
2022-12-01T12:20:06.764Z,69.88
2022-12-01T12:22:41.775Z,69.69
2022-12-01T12:25:23.892Z,69.80
2022-12-01T12:28:07.197Z,70.02
2022-12-01T12:30:50.059Z,69.94
2022-12-01T12:33:36.584Z,70.10
2022-12-01T12:36:14.939Z,70.00
2022-12-01T12:38:53.451Z,69.89
2022-12-01T12:41:29.736Z,69.44
2022-12-01T12:44:10.635Z,69.65
2022-12-01T12:46:50.402Z,69.46
2022-12-01T12:49:32.956Z,69.53
2022-12-01T12:52:08.691Z,69.30
2022-12-01T12:54:46.279Z,69.56
2022-12-01T12:57:23.933Z,70.18
2022-12-01T12:59:57.799Z,69.69
2022-12-01T13:02:33.987Z,69.63
2022-12-01T13:05:08.956Z,69.32
2022-12-01T13:07:42.258Z,69.21
2022-12-01T13:10:17.688Z,69.49
2022-12-01T13:12:56.111Z,69.34
2022-12-01T13:15:23.962Z,69.54
2022-12-01T13:17:56.073Z,69.65
2022-12-01T13:20:28.800Z,69.94
2022-12-01T13:22:58.715Z,69.64
2022-12-01T13:25:31.015Z,69.25
2022-12-01T13:28:01.394Z,69.08
2022-12-01T13:30:29.303Z,69.40
2022-12-01T13:33:04.201Z,69.17
2022-12-01T13:35:34.947Z,69.42
2022-12-01T13:38:24.767Z,69.33
2022-12-01T13:41:23.929Z,68.76
2022-12-01T13:44:01.388Z,68.96
2022-12-01T13:46:33.020Z,69.21
2022-12-01T13:49:04.137Z,68.67
2022-12-01T13:52:16.509Z,68.55
2022-12-01T13:55:02.731Z,68.70
2022-12-01T13:57:32.906Z,69.12
2022-12-01T14:00:22.282Z,69.09
2022-12-01T14:03:47.899Z,69.46
2022-12-01T14:06:27.860Z,69.50
2022-12-01T14:09:00.448Z,69.61
2022-12-01T14:11:30.782Z,69.37
2022-12-01T14:14:01.317Z,69.52
2022-12-01T14:16:47.916Z,69.46
2022-12-01T14:19:31.097Z,69.39
2022-12-01T14:22:02.083Z,69.24
2022-12-01T14:24:35.392Z,69.36
2022-12-01T14:27:04.203Z,69.31
2022-12-01T14:29:34.378Z,69.65
2022-12-01T14:32:26.482Z,69.74
2022-12-01T14:34:57.020Z,69.63
2022-12-01T14:37:34.360Z,69.87
2022-12-01T14:40:07.755Z,69.78
2022-12-01T14:42:55.511Z,69.59
2022-12-01T14:45:27.621Z,69.81
2022-12-01T14:48:02.370Z,69.43
2022-12-01T14:50:42.116Z,69.56
2022-12-01T14:53:22.515Z,69.75
2022-12-01T14:55:54.283Z,69.70
2022-12-01T14:58:24.971Z,69.75
2022-12-01T15:00:59.097Z,69.69
2022-12-01T15:03:32.122Z,70.14
2022-12-01T15:05:59.883Z,69.70
2022-12-01T15:09:04.045Z,70.02
2022-12-01T15:11:25.247Z,69.59
2022-12-01T15:13:54.581Z,70.03
2022-12-01T15:16:24.011Z,69.84
2022-12-01T15:18:52.411Z,69.75
2022-12-01T15:21:23.261Z,69.39
2022-12-01T15:24:00.355Z,69.97
2022-12-01T15:26:30.785Z,69.69
2022-12-01T15:29:17.338Z,70.13
2022-12-01T15:31:47.614Z,69.96
2022-12-01T15:34:18.167Z,69.57
2022-12-01T15:36:46.466Z,69.92
2022-12-01T15:39:18.916Z,70.09
2022-12-01T15:41:48.704Z,69.54
2022-12-01T15:44:22.476Z,69.72
2022-12-01T15:46:50.124Z,69.52
2022-12-01T15:49:19.979Z,69.71
2022-12-01T15:51:48.922Z,69.22
2022-12-01T15:54:21.831Z,69.58
2022-12-01T15:56:53.964Z,68.72
2022-12-01T15:59:32.284Z,68.48
2022-12-01T16:02:01.188Z,68.37
2022-12-01T16:04:32.143Z,68.80
2022-12-01T16:07:02.973Z,69.05
2022-12-01T16:09:35.798Z,68.95
2022-12-01T16:12:19.574Z,69.03
2022-12-01T16:14:52.509Z,69.63
2022-12-01T16:17:20.763Z,69.87
2022-12-01T16:19:48.410Z,69.66
2022-12-01T16:22:19.559Z,69.95
2022-12-01T16:24:52.819Z,70.00
2022-12-01T16:27:25.587Z,69.63
2022-12-01T16:29:55.906Z,69.84
2022-12-01T16:32:27.843Z,69.66
2022-12-01T16:34:55.476Z,69.58
2022-12-01T16:37:23.319Z,69.42
2022-12-01T16:39:52.242Z,69.38
2022-12-01T16:42:21.663Z,69.68
2022-12-01T16:44:50.519Z,69.57
2022-12-01T16:47:20.371Z,69.43
2022-12-01T16:49:48.388Z,69.59
2022-12-01T16:52:43.281Z,69.81
2022-12-01T16:55:05.986Z,69.75
2022-12-01T16:57:33.571Z,69.96
2022-12-01T17:00:01.242Z,69.91
2022-12-01T17:02:28.952Z,69.57
2022-12-01T17:04:56.710Z,69.82
2022-12-01T17:07:24.353Z,69.73
2022-12-01T17:09:52.030Z,69.97
2022-12-01T17:12:25.177Z,70.04
2022-12-01T17:14:53.079Z,69.78
2022-12-01T17:17:20.710Z,69.75
2022-12-01T17:19:48.309Z,69.84
2022-12-01T17:22:15.894Z,69.63
2022-12-01T17:24:43.497Z,69.57
2022-12-01T17:27:11.165Z,69.75
2022-12-01T17:29:45.757Z,69.68
2022-12-01T17:32:14.260Z,69.88
2022-12-01T17:34:42.195Z,69.84
2022-12-01T17:37:09.834Z,69.66
2022-12-01T17:39:37.758Z,69.25
2022-12-01T17:42:05.442Z,69.61
2022-12-01T17:44:33.200Z,69.54
2022-12-01T17:47:02.236Z,69.39
2022-12-01T17:49:29.889Z,69.39
2022-12-01T17:51:57.648Z,69.67
2022-12-01T17:54:25.270Z,69.53
2022-12-01T17:56:52.848Z,69.54
2022-12-01T17:59:20.477Z,69.60
2022-12-01T18:01:48.324Z,69.49
2022-12-01T18:04:17.329Z,69.66
2022-12-01T18:06:53.593Z,69.77
2022-12-01T18:09:22.032Z,69.80
2022-12-01T18:11:49.750Z,69.59
2022-12-01T18:14:17.736Z,69.37
2022-12-01T18:16:45.830Z,69.40
2022-12-01T18:19:13.674Z,69.76
2022-12-01T18:21:42.773Z,69.71
2022-12-01T18:24:10.920Z,69.61
2022-12-01T18:26:41.053Z,69.87
2022-12-01T18:29:12.572Z,69.87
2022-12-01T18:31:40.924Z,69.87
2022-12-01T18:34:09.148Z,70.17
2022-12-01T18:36:38.352Z,70.00
2022-12-01T18:39:09.955Z,69.86
2022-12-01T18:41:37.660Z,69.83
2022-12-01T18:44:05.982Z,69.90
2022-12-01T18:46:35.001Z,70.12
2022-12-01T18:49:02.977Z,70.36
2022-12-01T18:51:31.488Z,70.46
2022-12-01T18:54:00.945Z,69.86
2022-12-01T18:56:30.745Z,69.87
2022-12-01T18:59:00.083Z,70.30
2022-12-01T19:01:32.035Z,69.84
2022-12-01T19:04:00.977Z,69.98
2022-12-01T19:06:29.865Z,70.16
2022-12-01T19:09:00.471Z,70.05
2022-12-01T19:11:30.249Z,69.66
2022-12-01T19:13:57.876Z,70.20
2022-12-01T19:16:25.930Z,70.01
2022-12-01T19:18:53.733Z,69.85
2022-12-01T19:21:21.566Z,70.00
2022-12-01T19:23:49.896Z,70.03
2022-12-01T19:26:20.246Z,70.32
2022-12-01T19:28:49.718Z,70.48
2022-12-01T19:31:20.831Z,70.17
2022-12-01T19:33:48.630Z,70.32
2022-12-01T19:36:18.512Z,70.19
2022-12-01T19:38:46.859Z,70.17
2022-12-01T19:41:15.425Z,69.95
2022-12-01T19:43:43.242Z,70.22
2022-12-01T19:46:14.619Z,69.97
2022-12-01T19:48:42.488Z,69.47
2022-12-01T19:51:17.307Z,69.64
2022-12-01T19:53:44.986Z,70.02
2022-12-01T19:56:12.624Z,69.90
2022-12-01T19:58:40.636Z,70.28
2022-12-01T20:01:10.373Z,70.10
2022-12-01T20:03:40.738Z,70.35
2022-12-01T20:06:10.399Z,70.40
2022-12-01T20:08:38.391Z,70.53
2022-12-01T20:11:06.673Z,70.66
2022-12-01T20:13:35.327Z,70.50
2022-12-01T20:16:04.304Z,70.15
2022-12-01T20:18:32.625Z,70.19
2022-12-01T20:21:06.754Z,70.54
2022-12-01T20:23:34.978Z,70.45
2022-12-01T20:26:03.340Z,70.38
2022-12-01T20:28:31.441Z,70.60
2022-12-01T20:30:59.714Z,70.38
2022-12-01T20:33:30.104Z,70.16
2022-12-01T20:35:57.815Z,70.56
2022-12-01T20:38:27.840Z,70.69
2022-12-01T20:40:55.788Z,70.54
2022-12-01T20:43:23.456Z,69.66
2022-12-01T20:45:51.338Z,69.89
2022-12-01T20:48:19.131Z,70.04
2022-12-01T20:50:46.822Z,69.89
2022-12-01T20:53:14.772Z,70.03
2022-12-01T20:55:43.878Z,70.60
2022-12-01T20:58:11.772Z,70.61
2022-12-01T21:00:42.776Z,70.59
2022-12-01T21:03:10.716Z,70.46
2022-12-01T21:05:40.504Z,70.28
2022-12-01T21:08:10.180Z,70.57
2022-12-01T21:10:38.698Z,70.53
2022-12-01T21:13:37.429Z,70.36
2022-12-01T21:16:12.431Z,70.34
2022-12-01T21:19:01.691Z,70.59
2022-12-01T21:21:30.893Z,70.38
2022-12-01T21:24:12.009Z,70.56
2022-12-01T21:26:42.041Z,70.66
2022-12-01T21:29:19.870Z,70.60
2022-12-01T21:31:49.707Z,70.47
2022-12-01T21:34:20.003Z,70.72
2022-12-01T21:36:49.107Z,70.40
2022-12-01T21:39:18.378Z,70.50
2022-12-01T21:41:45.983Z,70.56
2022-12-01T21:44:17.369Z,70.64
2022-12-01T21:46:45.509Z,70.55
2022-12-01T21:49:16.535Z,70.58
2022-12-01T21:51:44.791Z,70.60
2022-12-01T21:54:14.858Z,70.83
2022-12-01T21:56:42.512Z,70.71
2022-12-01T21:59:17.991Z,70.68
2022-12-01T22:01:45.774Z,70.50
2022-12-01T22:04:17.508Z,70.20
2022-12-01T22:06:48.167Z,70.52
2022-12-01T22:09:23.643Z,70.46
2022-12-01T22:11:54.631Z,70.33
2022-12-01T22:14:25.604Z,70.64
2022-12-01T22:16:57.199Z,70.19
2022-12-01T22:19:29.674Z,70.37
2022-12-01T22:22:18.604Z,70.52
2022-12-01T22:24:47.879Z,70.41
2022-12-01T22:27:27.016Z,70.73
2022-12-01T22:30:02.407Z,70.72
2022-12-01T22:32:36.023Z,70.79
2022-12-01T22:35:32.422Z,70.88
2022-12-01T22:38:22.944Z,70.83
2022-12-01T22:40:56.504Z,71.17
2022-12-01T22:43:27.764Z,70.90
2022-12-01T22:46:11.239Z,71.32
2022-12-01T22:48:41.104Z,71.29
2022-12-01T22:51:30.209Z,71.52
2022-12-01T22:54:01.379Z,71.43
2022-12-01T22:56:33.261Z,71.35
2022-12-01T22:59:01.028Z,71.55
2022-12-01T23:01:33.207Z,71.16
2022-12-01T23:04:21.328Z,71.45
2022-12-01T23:07:07.987Z,71.61
2022-12-01T23:09:38.735Z,71.40
2022-12-01T23:12:21.798Z,71.48
2022-12-01T23:14:51.824Z,71.66
2022-12-01T23:17:25.386Z,70.96
2022-12-01T23:19:54.701Z,70.97
2022-12-01T23:22:22.322Z,71.01
2022-12-01T23:24:50.133Z,71.19
2022-12-01T23:27:18.949Z,71.09
2022-12-01T23:29:46.679Z,71.02
2022-12-01T23:32:14.483Z,71.05
2022-12-01T23:34:43.447Z,70.86
2022-12-01T23:37:30.265Z,71.64
2022-12-01T23:39:58.048Z,71.10
2022-12-01T23:42:25.711Z,71.29
2022-12-01T23:44:53.998Z,71.20
2022-12-01T23:47:24.985Z,71.16
2022-12-01T23:50:02.874Z,71.21
2022-12-01T23:52:34.643Z,71.36
2022-12-01T23:55:02.939Z,70.92
2022-12-01T23:57:31.888Z,71.57
